ButlerWeather Station
Hourly Leaf Wetness Data

Source: University of Missouri

To the bottom of the page

Year Month Day Hour Leaf Wetness Total
Precipitation
Avg. Temp Avg. Rel.
Humidity
Wind
Speed
CST mV in mm F C % mph
2023 01 05 1:00 262.2 0.0 0.00 32.4 0.2 66.28 n/a
2023 01 05 2:00 262.3 0.0 0.00 31.2 -0.5 69.3 n/a
2023 01 05 3:00 262.4 0.0 0.00 30.3 -0.9 69.71 n/a
2023 01 05 4:00 263.0 0.0 0.00 29.8 -1.2 71.65 n/a
2023 01 05 5:00 263.0 0.0 0.00 29.5 -1.4 73.03 n/a
2023 01 05 6:00 263.1 0.0 0.00 29.2 -1.6 74.43 n/a
2023 01 05 7:00 263.6 0.0 0.00 28.6 -1.9 75.6 n/a
2023 01 05 8:00 263.7 0.0 0.00 28.0 -2.2 76.25 n/a
2023 01 05 9:00 262.2 0.0 0.00 29.1 -1.6 73.8 n/a
2023 01 05 10:00 260.5 0.0 0.00 31.8 -0.1 66.01 n/a
2023 01 05 11:00 259.9 0.0 0.00 34.3 1.3 59.16 n/a
2023 01 05 12:00 259.5 0.0 0.00 36.6 2.6 53.46 n/a
2023 01 05 13:00 259.5 0.0 0.00 38.2 3.5 49.98 n/a
2023 01 05 14:00 259.5 0.0 0.00 40.6 4.8 45.07 n/a
2023 01 05 15:00 259.5 0.0 0.00 42.1 5.6 41.1 n/a
2023 01 05 16:00 259.5 0.0 0.00 43.2 6.2 38.82 n/a
2023 01 05 17:00 259.6 0.0 0.00 42.7 6.0 39.9 n/a
2023 01 05 18:00 260.6 0.0 0.00 39.6 4.2 45.07 n/a
2023 01 05 19:00 261.6 0.0 0.00 36.8 2.7 50.58 n/a
2023 01 05 20:00 261.8 0.0 0.00 35.7 2.1 52.38 n/a
2023 01 05 21:00 262.6 0.0 0.00 32.5 0.3 60.02 n/a
2023 01 05 22:00 263.3 0.0 0.00 31.8 -0.1 61.03 n/a
2023 01 05 23:00 263.0 0.0 0.00 31.4 -0.3 60.94 n/a
2023 01 05 24:00 264.5 0.0 0.00 29.9 -1.2 64.49 n/a
2023 01 06 1:00 266.1 0.0 0.00 28.4 -2.0 68.6 n/a
2023 01 06 2:00 264.8 0.0 0.00 27.9 -2.3 69.22 n/a
2023 01 06 3:00 265.3 0.0 0.00 26.8 -2.9 72.41 n/a
2023 01 06 4:00 265.0 0.0 0.00 26.6 -3.0 71.97 n/a
2023 01 06 5:00 265.3 0.0 0.00 25.7 -3.5 73.43 n/a
2023 01 06 6:00 266.2 0.0 0.00 24.4 -4.2 77.35 n/a
2023 01 06 7:00 266.9 0.0 0.00 23.3 -4.8 79.02 n/a
2023 01 06 8:00 267.4 0.0 0.00 24.2 -4.3 77.55 n/a
2023 01 06 9:00 263.7 0.0 0.00 27.6 -2.4 71.03 n/a
2023 01 06 10:00 259.1 0.0 0.00 34.0 1.1 61.02 n/a
2023 01 06 11:00 258.5 0.0 0.00 40.4 4.7 49.04 n/a
2023 01 06 12:00 258.5 0.0 0.00 44.8 7.1 40.07 n/a
2023 01 06 13:00 258.3 0.0 0.00 46.6 8.1 36.29 n/a
2023 01 06 14:00 258.7 0.0 0.00 47.6 8.6 36.05 n/a
2023 01 06 15:00 258.7 0.0 0.00 48.3 9.1 36.27 n/a
2023 01 06 16:00 258.8 0.0 0.00 47.8 8.8 37.18 n/a
2023 01 06 17:00 259.4 0.0 0.00 46.4 8.0 39.74 n/a
2023 01 06 18:00 259.6 0.0 0.00 44.6 7.0 42.57 n/a
2023 01 06 19:00 259.9 0.0 0.00 43.5 6.4 43.89 n/a
2023 01 06 20:00 259.7 0.0 0.00 43.7 6.5 43.96 n/a
2023 01 06 21:00 259.5 0.0 0.00 44.5 7.0 43 n/a
2023 01 06 22:00 259.9 0.0 0.00 43.2 6.2 46.68 n/a
2023 01 06 23:00 259.9 0.0 0.00 42.9 6.0 47.13 n/a
2023 01 06 24:00 260.2 0.0 0.00 41.3 5.2 48.9 n/a
2023 01 07 1:00 260.2 0.0 0.00 40.8 4.9 50.53 n/a
2023 01 07 2:00 260.2 0.0 0.00 40.8 4.9 51.48 n/a
2023 01 07 3:00 260.2 0.0 0.00 40.0 4.4 52.51 n/a
2023 01 07 4:00 260.2 0.0 0.00 39.4 4.1 54.01 n/a
2023 01 07 5:00 260.2 0.0 0.00 38.4 3.5 56.41 n/a
2023 01 07 6:00 260.6 0.0 0.00 38.0 3.3 57.77 n/a
2023 01 07 7:00 260.9 0.0 0.00 37.1 2.8 60.16 n/a
2023 01 07 8:00 260.9 0.0 0.00 36.5 2.5 60.81 n/a
2023 01 07 9:00 260.9 0.0 0.00 36.7 2.6 59.96 n/a
2023 01 07 10:00 260.9 0.0 0.00 36.2 2.3 61.12 n/a
2023 01 07 11:00 261.0 0.0 0.00 34.5 1.4 66.03 n/a
2023 01 07 12:00 260.9 0.0 0.00 34.6 1.5 65.03 n/a
2023 01 07 13:00 260.9 0.0 0.00 34.1 1.2 65.74 n/a
2023 01 07 14:00 261.3 0.0 0.00 33.0 0.5 70.1 n/a
2023 01 07 15:00 261.6 0.0 0.00 32.1 0.1 75.2 n/a
2023 01 07 16:00 262.2 0.0 0.00 31.4 -0.3 77.07 n/a
2023 01 07 17:00 262.4 0.0 0.00 31.3 -0.4 78.7 n/a
2023 01 07 18:00 262.7 0.0 0.00 30.8 -0.7 79.04 n/a
2023 01 07 19:00 263.0 0.0 0.00 29.9 -1.1 81.2 n/a
2023 01 07 20:00 263.0 0.0 0.00 29.4 -1.5 80.5 n/a
2023 01 07 21:00 262.8 0.0 0.00 29.5 -1.4 77.81 n/a
2023 01 07 22:00 262.3 0.0 0.00 29.7 -1.3 75.39 n/a
2023 01 07 23:00 262.4 0.0 0.00 29.7 -1.3 75.94 n/a
2023 01 07 24:00 262.9 0.0 0.00 29.8 -1.2 76.85 n/a
2023 01 08 1:00 263.0 0.0 0.00 29.5 -1.4 77.37 n/a
2023 01 08 2:00 263.0 0.0 0.00 29.5 -1.4 77.53 n/a
2023 01 08 3:00 262.9 0.0 0.00 29.7 -1.3 76.4 n/a
2023 01 08 4:00 262.9 0.0 0.00 29.8 -1.2 75.15 n/a
2023 01 08 5:00 263.0 0.0 0.00 29.6 -1.3 75.86 n/a
2023 01 08 6:00 263.0 0.0 0.00 29.9 -1.2 76.19 n/a
2023 01 08 7:00 263.0 0.0 0.00 30.0 -1.1 75.3 n/a
2023 01 08 8:00 263.2 0.0 0.00 29.6 -1.3 76.38 n/a
2023 01 08 9:00 262.7 0.0 0.00 30.1 -1.0 77.22 n/a
2023 01 08 10:00 261.4 0.0 0.00 31.8 -0.1 76.44 n/a
2023 01 08 11:00 259.6 0.0 0.00 34.3 1.3 73.13 n/a
2023 01 08 12:00 259.0 0.0 0.00 37.9 3.3 65.85 n/a
2023 01 08 13:00 258.7 0.0 0.00 41.4 5.2 58.19 n/a
2023 01 08 14:00 259.3 0.0 0.00 43.7 6.5 53.07 n/a
2023 01 08 15:00 259.5 0.0 0.00 45.2 7.3 48.31 n/a
2023 01 08 16:00 259.8 0.0 0.00 45.9 7.7 43.77 n/a
2023 01 08 17:00 260.0 0.0 0.00 45.1 7.3 45.28 n/a
2023 01 08 18:00 260.8 0.0 0.00 42.1 5.6 50.1 n/a
2023 01 08 19:00 261.7 0.0 0.00 39.5 4.2 55.26 n/a
2023 01 08 20:00 261.9 0.0 0.00 37.3 2.9 59.07 n/a
2023 01 08 21:00 262.3 0.0 0.00 35.8 2.1 62.98 n/a
2023 01 08 22:00 262.8 0.0 0.00 34.1 1.2 68 n/a
2023 01 08 23:00 263.3 0.0 0.00 33.7 0.9 72.51 n/a
2023 01 08 24:00 263.5 0.0 0.00 33.5 0.8 72.74 n/a
2023 01 09 1:00 264.0 0.0 0.00 32.9 0.5 74.29 n/a
2023 01 09 2:00 263.7 0.0 0.00 32.3 0.2 75.43 n/a
2023 01 09 3:00 263.7 0.0 0.00 31.7 -0.2 76.52 n/a
2023 01 09 4:00 264.8 0.0 0.00 30.6 -0.8 78.26 n/a
2023 01 09 5:00 263.9 0.0 0.00 31.0 -0.5 76.84 n/a
2023 01 09 6:00 263.7 0.0 0.00 31.0 -0.6 75.98 n/a
2023 01 09 7:00 263.7 0.0 0.00 31.1 -0.5 75.94 n/a
2023 01 09 8:00 263.7 0.0 0.00 31.7 -0.2 74.48 n/a
2023 01 09 9:00 262.1 0.0 0.00 33.2 0.7 72.4 n/a
2023 01 09 10:00 260.5 0.0 0.00 39.2 4.0 64.03 n/a
2023 01 09 11:00 259.7 0.0 0.00 45.1 7.3 54.99 n/a
2023 01 09 12:00 259.0 0.0 0.00 50.5 10.3 45.97 n/a
2023 01 09 13:00 258.1 0.0 0.00 54.9 12.7 37.97 n/a
2023 01 09 14:00 258.0 0.0 0.00 57.9 14.4 34.53 n/a
2023 01 09 15:00 257.9 0.0 0.00 59.9 15.5 30.75 n/a
2023 01 09 16:00 258.0 0.0 0.00 59.7 15.4 31 n/a
2023 01 09 17:00 258.2 0.0 0.00 57.5 14.2 34.1 n/a
2023 01 09 18:00 259.0 0.0 0.00 53.7 12.0 40.62 n/a
2023 01 09 19:00 259.9 0.0 0.00 49.4 9.7 47.41 n/a
2023 01 09 20:00 260.5 0.0 0.00 46.9 8.3 52.59 n/a
2023 01 09 21:00 260.8 0.0 0.00 46.0 7.8 55.99 n/a
2023 01 09 22:00 260.8 0.0 0.00 45.6 7.6 58.04 n/a
2023 01 09 23:00 261.6 0.0 0.00 43.0 6.1 62.78 n/a
2023 01 09 24:00 262.9 0.0 0.00 40.2 4.5 67.92 n/a
2023 01 10 1:00 266.0 0.0 0.00 38.7 3.7 70.57 n/a
2023 01 10 2:00 275.2 0.0 0.00 35.6 2.0 77.18 n/a
2023 01 10 3:00 275.0 0.0 0.00 34.2 1.2 77.91 n/a
2023 01 10 4:00 273.6 0.0 0.00 33.2 0.6 79.08 n/a
2023 01 10 5:00 275.5 0.0 0.00 32.0 0.0 80.4 n/a
2023 01 10 6:00 Wet 291.6 0.0 0.00 31.0 -0.6 83.7 n/a
2023 01 10 7:00 271.6 0.0 0.00 30.3 -1.0 84.8 n/a
2023 01 10 8:00 272.9 0.0 0.00 30.6 -0.8 84.4 n/a
2023 01 10 9:00 Wet 289.7 0.0 0.00 31.5 -0.3 84.6 n/a
2023 01 10 10:00 261.0 0.0 0.00 37.5 3.1 73.72 n/a
2023 01 10 11:00 258.8 0.0 0.00 43.0 6.1 61.21 n/a
2023 01 10 12:00 258.5 0.0 0.00 48.4 9.1 48.86 n/a
2023 01 10 13:00 258.0 0.0 0.00 51.9 11.1 40.33 n/a
2023 01 10 14:00 257.8 0.0 0.00 54.4 12.4 36.2 n/a
2023 01 10 15:00 258.0 0.0 0.00 55.8 13.2 34.08 n/a
2023 01 10 16:00 258.0 0.0 0.00 55.5 13.1 34.8 n/a
2023 01 10 17:00 258.7 0.0 0.00 54.2 12.3 37.16 n/a
2023 01 10 18:00 259.4 0.0 0.00 51.8 11.0 40.97 n/a
2023 01 10 19:00 260.0 0.0 0.00 48.6 9.2 46.49 n/a
2023 01 10 20:00 260.5 0.0 0.00 45.8 7.7 52.34 n/a
2023 01 10 21:00 260.7 0.0 0.00 45.1 7.3 53.37 n/a
2023 01 10 22:00 260.8 0.0 0.00 43.5 6.4 56.29 n/a
2023 01 10 23:00 260.9 0.0 0.00 43.5 6.4 56.11 n/a
2023 01 10 24:00 261.5 0.0 0.00 43.8 6.6 57.73 n/a
2023 01 11 1:00 262.3 0.0 0.00 41.3 5.2 64.27 n/a
2023 01 11 2:00 264.8 0.0 0.00 37.6 3.1 72.63 n/a
2023 01 11 3:00 268.7 0.0 0.00 35.2 1.8 77.85 n/a
2023 01 11 4:00 271.5 0.0 0.00 33.4 0.8 80.2 n/a
2023 01 11 5:00 271.4 0.0 0.00 33.3 0.7 80.2 n/a
2023 01 11 6:00 276.1 0.0 0.00 31.7 -0.1 81.6 n/a
2023 01 11 7:00 282.9 0.0 0.00 30.5 -0.8 84.8 n/a
2023 01 11 8:00 278.3 0.0 0.00 31.9 -0.1 82.5 n/a
2023 01 11 9:00 270.3 0.0 0.00 31.5 -0.3 84.5 n/a
2023 01 11 10:00 259.1 0.0 0.00 38.3 3.5 74.59 n/a
2023 01 11 11:00 257.6 0.0 0.00 47.6 8.7 55.15 n/a
2023 01 11 12:00 257.1 0.0 0.00 52.9 11.6 45.66 n/a
2023 01 11 13:00 257.2 0.0 0.00 56.4 13.6 41.35 n/a
2023 01 11 14:00 257.2 0.0 0.00 58.8 14.9 37.24 n/a
2023 01 11 15:00 258.0 0.0 0.00 59.3 15.2 35.9 n/a
2023 01 11 16:00 258.0 0.0 0.00 58.6 14.8 37.18 n/a
2023 01 11 17:00 258.7 0.0 0.00 56.3 13.5 41.24 n/a
2023 01 11 18:00 259.2 0.0 0.00 53.1 11.7 44.77 n/a
2023 01 11 19:00 259.4 0.0 0.00 51.1 10.6 49.4 n/a
2023 01 11 20:00 259.5 0.0 0.00 50.3 10.2 52.18 n/a
2023 01 11 21:00 260.1 0.0 0.00 48.6 9.2 57.21 n/a
2023 01 11 22:00 260.1 0.0 0.00 46.8 8.2 57.87 n/a
2023 01 11 23:00 260.5 0.0 0.00 45.9 7.7 59.63 n/a
2023 01 11 24:00 260.7 0.0 0.00 45.3 7.4 62.13 n/a
2023 01 12 1:00 260.8 0.0 0.00 43.5 6.4 64.82 n/a
2023 01 12 2:00 261.1 0.0 0.00 41.8 5.4 67.23 n/a
2023 01 12 3:00 261.5 0.0 0.00 37.6 3.1 73.14 n/a
2023 01 12 4:00 Wet 329.8 0.0 0.00 34.9 1.6 82 n/a
2023 01 12 5:00 265.7 0.0 0.00 34.1 1.2 82.7 n/a
2023 01 12 6:00 265.7 0.0 0.00 31.3 -0.4 91.3 n/a
2023 01 12 7:00 267.8 0.0 0.00 29.8 -1.2 91.3 n/a
2023 01 12 8:00 263.7 0.0 0.00 30.0 -1.1 85.6 n/a
2023 01 12 9:00 263.7 0.0 0.00 30.9 -0.6 83.9 n/a
2023 01 12 10:00 263.7 0.0 0.00 31.7 -0.2 82.1 n/a
2023 01 12 11:00 263.4 0.0 0.00 32.2 0.1 81.1 n/a
2023 01 12 12:00 262.8 0.0 0.00 32.5 0.3 78.67 n/a
2023 01 12 13:00 262.3 0.0 0.00 33.3 0.7 77.18 n/a
2023 01 12 14:00 262.2 0.0 0.00 32.2 0.1 76.41 n/a
2023 01 12 15:00 262.3 0.0 0.00 30.6 -0.8 76.61 n/a
2023 01 12 16:00 262.7 0.0 0.00 29.1 -1.6 76.67 n/a
2023 01 12 17:00 262.9 0.0 0.00 27.5 -2.5 75.66 n/a
2023 01 12 18:00 263.0 0.0 0.00 26.8 -2.9 75.27 n/a
2023 01 12 19:00 263.0 0.0 0.00 26.3 -3.2 75.55 n/a
2023 01 12 20:00 262.7 0.0 0.00 26.2 -3.2 73.75 n/a
2023 01 12 21:00 262.4 0.0 0.00 26.9 -2.8 72.82 n/a
2023 01 12 22:00 262.4 0.0 0.00 27.6 -2.4 72.49 n/a
2023 01 12 23:00 262.4 0.0 0.00 28.0 -2.2 72.17 n/a
2023 01 12 24:00 262.4 0.0 0.00 28.1 -2.2 73.15 n/a
2023 01 13 1:00 262.6 0.0 0.00 27.8 -2.3 74.27 n/a
2023 01 13 2:00 263.0 0.0 0.00 27.1 -2.7 75.08 n/a
2023 01 13 3:00 263.0 0.0 0.00 26.5 -3.1 75.2 n/a
2023 01 13 4:00 263.0 0.0 0.00 25.4 -3.7 75.61 n/a
2023 01 13 5:00 263.0 0.0 0.00 24.0 -4.5 76.03 n/a
2023 01 13 6:00 263.0 0.0 0.00 23.7 -4.6 76.63 n/a
2023 01 13 7:00 263.0 0.0 0.00 23.8 -4.6 76.47 n/a
2023 01 13 8:00 263.0 0.0 0.00 23.8 -4.6 76.06 n/a
2023 01 13 9:00 262.8 0.0 0.00 23.3 -4.8 75.8 n/a
2023 01 13 10:00 261.9 0.0 0.00 24.8 -4.0 72.88 n/a
2023 01 13 11:00 261.2 0.0 0.00 25.9 -3.4 69.01 n/a
2023 01 13 12:00 259.7 0.0 0.00 28.3 -2.0 65.66 n/a
2023 01 13 13:00 259.5 0.0 0.00 30.0 -1.1 62.27 n/a
2023 01 13 14:00 259.7 0.0 0.00 32.2 0.1 57.73 n/a
2023 01 13 15:00 260.3 0.0 0.00 33.0 0.6 56.12 n/a
2023 01 13 16:00 260.8 0.0 0.00 33.9 1.1 54.81 n/a
2023 01 13 17:00 261.5 0.0 0.00 32.3 0.2 61.26 n/a
2023 01 13 18:00 263.6 0.0 0.00 29.5 -1.4 68.41 n/a
2023 01 13 19:00 267.9 0.0 0.00 27.7 -2.4 72.68 n/a
2023 01 13 20:00 267.2 0.0 0.00 26.4 -3.1 75.68 n/a
2023 01 13 21:00 268.8 0.0 0.00 25.0 -3.9 79.63 n/a
2023 01 13 22:00 270.7 0.0 0.00 23.5 -4.7 81.8 n/a
2023 01 13 23:00 272.9 0.0 0.00 22.1 -5.5 83.7 n/a
2023 01 13 24:00 274.8 0.0 0.00 20.3 -6.5 85.4 n/a
2023 01 14 1:00 276.7 0.0 0.00 20.7 -6.3 87 n/a
2023 01 14 2:00 277.9 0.0 0.00 21.5 -5.8 85 n/a
2023 01 14 3:00 278.6 0.0 0.00 21.0 -6.1 84.7 n/a
2023 01 14 4:00 280.0 0.0 0.00 20.8 -6.2 85.9 n/a
2023 01 14 5:00 281.2 0.0 0.00 20.8 -6.2 86.1 n/a
2023 01 14 6:00 281.9 0.0 0.00 20.5 -6.4 85.9 n/a
2023 01 14 7:00 282.7 0.0 0.00 20.9 -6.2 86.3 n/a
2023 01 14 8:00 282.9 0.0 0.00 21.8 -5.7 85 n/a
2023 01 14 9:00 282.7 0.0 0.00 23.3 -4.8 83.4 n/a
2023 01 14 10:00 280.2 0.0 0.00 26.9 -2.8 78.4 n/a
2023 01 14 11:00 265.4 0.0 0.00 30.3 -0.9 72.16 n/a
2023 01 14 12:00 260.1 0.0 0.00 35.2 1.8 60.59 n/a
2023 01 14 13:00 259.4 0.0 0.00 40.8 4.9 46.25 n/a
2023 01 14 14:00 259.4 0.0 0.00 43.1 6.2 42.5 n/a
2023 01 14 15:00 259.2 0.0 0.00 45.3 7.4 39.76 n/a
2023 01 14 16:00 259.4 0.0 0.00 46.6 8.1 38.43 n/a
2023 01 14 17:00 259.4 0.0 0.00 46.6 8.1 39.39 n/a
2023 01 14 18:00 259.8 0.0 0.00 45.0 7.2 43.57 n/a
2023 01 14 19:00 260.2 0.0 0.00 42.2 5.7 50.32 n/a
2023 01 14 20:00 260.7 0.0 0.00 41.6 5.3 53.07 n/a
2023 01 14 21:00 260.9 0.0 0.00 40.2 4.6 55.45 n/a
2023 01 14 22:00 260.9 0.0 0.00 39.6 4.2 55.37 n/a
2023 01 14 23:00 260.9 0.0 0.00 39.1 3.9 54.69 n/a
2023 01 14 24:00 260.9 0.0 0.00 38.1 3.4 56.35 n/a
2023 01 15 1:00 260.9 0.0 0.00 38.0 3.4 56.09 n/a
2023 01 15 2:00 260.9 0.0 0.00 38.0 3.3 56.02 n/a
2023 01 15 3:00 260.9 0.0 0.00 38.1 3.4 55.76 n/a
2023 01 15 4:00 260.9 0.0 0.00 37.9 3.3 56.3 n/a
2023 01 15 5:00 260.9 0.0 0.00 37.9 3.3 56.93 n/a
2023 01 15 6:00 261.1 0.0 0.00 37.1 2.8 59.33 n/a
2023 01 15 7:00 261.4 0.0 0.00 36.8 2.7 61.22 n/a
2023 01 15 8:00 261.6 0.0 0.00 37.1 2.8 62.75 n/a
2023 01 15 9:00 260.4 0.0 0.00 39.7 4.3 60.94 n/a
2023 01 15 10:00 259.8 0.0 0.00 43.3 6.3 58.28 n/a
2023 01 15 11:00 259.8 0.0 0.00 47.3 8.5 57.66 n/a
2023 01 15 12:00 259.5 0.0 0.00 52.8 11.5 56.1 n/a
2023 01 15 13:00 259.3 0.0 0.00 55.0 12.8 53.05 n/a
2023 01 15 14:00 259.3 0.0 0.00 57.1 13.9 51.09 n/a
2023 01 15 15:00 259.3 0.0 0.00 57.8 14.4 49.61 n/a
2023 01 15 16:00 259.3 0.0 0.00 57.2 14.0 51.89 n/a
2023 01 15 17:00 259.7 0.0 0.00 57.1 13.9 53.26 n/a
2023 01 15 18:00 260.0 0.0 0.00 56.5 13.6 56.13 n/a
2023 01 15 19:00 260.0 0.0 0.00 55.9 13.3 59.35 n/a
2023 01 15 20:00 260.2 0.0 0.00 55.5 13.1 60.87 n/a
2023 01 15 21:00 260.7 0.0 0.00 55.0 12.8 62.77 n/a
2023 01 15 22:00 260.7 0.0 0.00 54.9 12.7 64.17 n/a
2023 01 15 23:00 260.7 0.0 0.00 54.6 12.6 65.52 n/a
2023 01 15 24:00 260.7 0.0 0.00 54.7 12.6 66.56 n/a
2023 01 16 1:00 262.4 0.0 0.00 54.8 12.7 68.34 n/a
2023 01 16 2:00 261.4 0.0 0.00 55.1 12.9 69.26 n/a
2023 01 16 3:00 261.4 0.0 0.00 56.4 13.6 68.21 n/a
2023 01 16 4:00 261.4 0.0 0.00 56.6 13.7 69.34 n/a
2023 01 16 5:00 261.4 0.0 0.00 58.0 14.5 68.58 n/a
2023 01 16 6:00 261.4 0.0 0.00 58.2 14.6 69.34 n/a
2023 01 16 7:00 261.4 0.0 0.00 57.8 14.4 70.74 n/a
2023 01 16 8:00 261.4 0.0 0.00 58.2 14.6 68.75 n/a
2023 01 16 9:00 261.3 0.0 0.00 57.7 14.3 68.87 n/a
2023 01 16 10:00 259.8 0.0 0.00 57.0 13.9 50.29 n/a
2023 01 16 11:00 258.6 0.0 0.00 56.1 13.4 41.86 n/a
2023 01 16 12:00 258.6 0.0 0.00 54.7 12.6 43.02 n/a
2023 01 16 13:00 258.0 0.0 0.00 55.0 12.8 38.53 n/a
2023 01 16 14:00 258.0 0.0 0.00 55.2 12.9 38.26 n/a
2023 01 16 15:00 258.0 0.0 0.00 57.2 14.0 38.33 n/a
2023 01 16 16:00 258.6 0.0 0.00 57.4 14.1 39.81 n/a
2023 01 16 17:00 258.7 0.0 0.00 56.9 13.9 42.23 n/a
2023 01 16 18:00 259.6 0.0 0.00 54.0 12.2 47.81 n/a
2023 01 16 19:00 260.4 0.0 0.00 50.8 10.5 53.35 n/a
2023 01 16 20:00 260.8 0.0 0.00 49.3 9.6 56.44 n/a
2023 01 16 21:00 261.1 0.0 0.00 48.2 9.0 58.94 n/a
2023 01 16 22:00 263.0 0.0 0.00 45.3 7.4 64.69 n/a
2023 01 16 23:00 263.5 0.0 0.00 43.5 6.4 68.34 n/a
2023 01 16 24:00 265.5 0.0 0.00 42.0 5.5 71.31 n/a
2023 01 17 1:00 266.1 0.0 0.00 40.2 4.5 75.79 n/a
2023 01 17 2:00 266.1 0.0 0.00 39.3 4.0 76.37 n/a
2023 01 17 3:00 271.9 0.0 0.00 37.5 3.1 79.53 n/a
2023 01 17 4:00 279.0 0.0 0.00 35.6 2.0 82.8 n/a
2023 01 17 5:00 Wet 305.8 0.0 0.00 33.9 1.1 84.3 n/a
2023 01 17 6:00 Wet 350.7 0.0 0.00 32.3 0.2 86.9 n/a
2023 01 17 7:00 272.4 0.0 0.00 31.3 -0.4 88.7 n/a
2023 01 17 8:00 275.3 0.0 0.00 30.6 -0.8 89.7 n/a
2023 01 17 9:00 Wet 326.3 0.0 0.00 31.7 -0.2 90.6 n/a
2023 01 17 10:00 Wet 291.7 0.0 0.00 35.2 1.8 82.4 n/a
2023 01 17 11:00 259.0 0.0 0.00 38.6 3.6 74.39 n/a
2023 01 17 12:00 258.6 0.0 0.00 42.1 5.6 66.87 n/a
2023 01 17 13:00 258.9 0.0 0.00 44.9 7.2 60.54 n/a
2023 01 17 14:00 258.8 0.0 0.00 47.6 8.7 55.9 n/a
2023 01 17 15:00 259.3 0.0 0.00 49.4 9.7 52.83 n/a
2023 01 17 16:00 260.0 0.0 0.00 50.1 10.1 51.78 n/a
2023 01 17 17:00 259.9 0.0 0.00 49.8 9.9 51.64 n/a
2023 01 17 18:00 260.8 0.0 0.00 47.4 8.6 56.13 n/a
2023 01 17 19:00 261.2 0.0 0.00 44.9 7.2 61.58 n/a
2023 01 17 20:00 261.5 0.0 0.00 43.6 6.4 64.1 n/a
2023 01 17 21:00 261.5 0.0 0.00 42.7 6.0 64.81 n/a
2023 01 17 22:00 261.5 0.0 0.00 42.2 5.7 64.33 n/a
2023 01 17 23:00 261.5 0.0 0.00 41.6 5.3 65.67 n/a
2023 01 17 24:00 261.5 0.0 0.00 41.1 5.0 66.46 n/a
2023 01 18 1:00 261.5 0.0 0.00 40.9 4.9 66.08 n/a
2023 01 18 2:00 266.0 0.0 0.00 40.8 4.9 67.87 n/a
2023 01 18 3:00 Wet 321.4 0.0 0.00 40.6 4.8 71.42 n/a
2023 01 18 4:00 Wet 582.5 0.1 1.78 39.2 4.0 82.7 n/a
2023 01 18 5:00 Wet 503.5 0.0 0.51 38.9 3.9 86.4 n/a
2023 01 18 6:00 Wet 494.5 0.0 0.25 39.3 4.0 88.2 n/a
2023 01 18 7:00 Wet 539.0 0.0 0.76 39.5 4.2 90.8 n/a
2023 01 18 8:00 Wet 439.1 0.0 0.00 39.8 4.3 94.2 n/a
2023 01 18 9:00 Wet 527.5 0.0 1.02 40.2 4.6 93.9 n/a
2023 01 18 10:00 Wet 512.2 0.0 1.02 40.8 4.9 94.8 n/a
2023 01 18 11:00 Wet 571.2 0.1 3.05 41.2 5.1 95.4 n/a
2023 01 18 12:00 Wet 583.0 0.3 6.60 41.5 5.3 95.9 n/a
2023 01 18 13:00 Wet 611.5 0.1 3.05 41.7 5.4 96.5 n/a
2023 01 18 14:00 Wet 519.1 0.1 1.27 41.4 5.2 97 n/a
2023 01 18 15:00 Wet 296.7 0.0 0.00 42.8 6.0 97.2 n/a
2023 01 18 16:00 277.4 0.0 0.00 42.9 6.1 96.1 n/a
2023 01 18 17:00 266.2 0.0 0.00 43.1 6.1 96.1 n/a
2023 01 18 18:00 270.8 0.0 0.00 42.8 6.0 96.5 n/a
2023 01 18 19:00 Wet 391.3 0.0 0.00 42.7 5.9 97.5 n/a
2023 01 18 20:00 Wet 500.5 0.0 0.00 42.5 5.8 98 n/a
2023 01 18 21:00 Wet 486.4 0.0 0.00 42.6 5.9 98.4 n/a
2023 01 18 22:00 Wet 472.1 0.0 0.00 42.7 5.9 98.6 n/a
2023 01 18 23:00 Wet 441.4 0.0 0.00 42.5 5.8 98.7 n/a
2023 01 18 24:00 Wet 449.0 0.0 0.00 40.5 4.7 98.5 n/a
2023 01 19 1:00 Wet 386.2 0.0 0.00 37.7 3.2 92.7 n/a
2023 01 19 2:00 Wet 307.7 0.0 0.00 37.0 2.8 81.6 n/a
2023 01 19 3:00 265.4 0.0 0.00 36.4 2.4 76.33 n/a
2023 01 19 4:00 263.6 0.0 0.00 34.7 1.5 76.71 n/a
2023 01 19 5:00 263.6 0.0 0.00 33.9 1.0 77 n/a
2023 01 19 6:00 263.6 0.0 0.00 33.2 0.7 80.5 n/a
2023 01 19 7:00 263.6 0.0 0.00 32.7 0.4 81.7 n/a
2023 01 19 8:00 263.6 0.0 0.00 32.3 0.2 82 n/a
2023 01 19 9:00 263.6 0.0 0.00 32.8 0.5 80.5 n/a
2023 01 19 10:00 263.6 0.0 0.00 33.0 0.6 79.46 n/a
2023 01 19 11:00 263.5 0.0 0.00 32.7 0.4 79.55 n/a
2023 01 19 12:00 262.3 0.0 0.00 34.2 1.2 77.03 n/a
2023 01 19 13:00 262.0 0.0 0.00 34.7 1.5 72.55 n/a
2023 01 19 14:00 261.7 0.0 0.00 35.4 1.9 69.01 n/a
2023 01 19 15:00 261.6 0.0 0.00 36.5 2.5 65.01 n/a
2023 01 19 16:00 261.5 0.0 0.00 37.1 2.8 62.34 n/a
2023 01 19 17:00 261.6 0.0 0.00 36.7 2.6 63.07 n/a
2023 01 19 18:00 262.0 0.0 0.00 36.1 2.3 64.76 n/a
2023 01 19 19:00 262.2 0.0 0.00 35.2 1.8 65.34 n/a
2023 01 19 20:00 262.2 0.0 0.00 35.0 1.7 64.26 n/a
2023 01 19 21:00 262.3 0.0 0.00 33.9 1.0 65.08 n/a
2023 01 19 22:00 262.3 0.0 0.00 32.7 0.4 68.38 n/a
2023 01 19 23:00 262.9 0.0 0.00 30.8 -0.6 71.1 n/a
2023 01 19 24:00 264.1 0.0 0.00 28.7 -1.8 75.01 n/a
2023 01 20 1:00 266.6 0.0 0.00 27.2 -2.6 77.95 n/a
2023 01 20 2:00 266.7 0.0 0.00 26.8 -2.9 79.9 n/a
2023 01 20 3:00 267.7 0.0 0.00 26.1 -3.3 81.4 n/a
2023 01 20 4:00 271.3 0.0 0.00 25.3 -3.7 82.2 n/a
2023 01 20 5:00 268.7 0.0 0.00 24.7 -4.0 83.6 n/a
2023 01 20 6:00 270.7 0.0 0.00 23.6 -4.7 84.8 n/a
2023 01 20 7:00 272.8 0.0 0.00 22.7 -5.2 86.6 n/a
2023 01 20 8:00 275.5 0.0 0.00 22.5 -5.3 87.8 n/a
2023 01 20 9:00 280.9 0.0 0.00 24.0 -4.4 88.6 n/a
2023 01 20 10:00 Wet 295.4 0.0 0.00 28.3 -2.1 86 n/a
2023 01 20 11:00 259.7 0.0 0.00 31.9 -0.1 77.22 n/a
2023 01 20 12:00 259.0 0.0 0.00 34.8 1.6 70.93 n/a
2023 01 20 13:00 259.1 0.0 0.00 37.9 3.3 64.09 n/a
2023 01 20 14:00 259.4 0.0 0.00 40.6 4.8 59.14 n/a
2023 01 20 15:00 259.6 0.0 0.00 42.8 6.0 54.79 n/a
2023 01 20 16:00 260.7 0.0 0.00 43.5 6.4 52.87 n/a
2023 01 20 17:00 260.6 0.0 0.00 43.9 6.6 52.13 n/a
2023 01 20 18:00 262.0 0.0 0.00 41.8 5.4 56.27 n/a
2023 01 20 19:00 263.5 0.0 0.00 37.2 2.9 67.69 n/a
2023 01 20 20:00 272.1 0.0 0.00 34.3 1.3 74.12 n/a
2023 01 20 21:00 Wet 285.3 0.0 0.00 32.7 0.4 78.45 n/a
2023 01 20 22:00 281.3 0.0 0.00 33.0 0.5 76.93 n/a
2023 01 20 23:00 Wet 288.2 0.0 0.00 32.3 0.2 77.4 n/a
2023 01 20 24:00 Wet 284.9 0.0 0.00 30.3 -0.9 81.1 n/a
2023 01 21 1:00 272.3 0.0 0.00 29.6 -1.4 82.6 n/a
2023 01 21 2:00 274.9 0.0 0.00 28.3 -2.0 84.9 n/a
2023 01 21 3:00 277.2 0.0 0.00 27.0 -2.8 85.9 n/a
2023 01 21 4:00 279.3 0.0 0.00 27.4 -2.6 86.1 n/a
2023 01 21 5:00 280.9 0.0 0.00 26.3 -3.2 86 n/a
2023 01 21 6:00 282.4 0.0 0.00 25.9 -3.4 87.1 n/a
2023 01 21 7:00 282.7 0.0 0.00 27.5 -2.5 86 n/a
2023 01 21 8:00 283.1 0.0 0.00 27.3 -2.6 85.1 n/a
2023 01 21 9:00 Wet 350.7 0.0 0.00 29.6 -1.3 83.4 n/a
2023 01 21 10:00 Wet 380.0 0.0 0.00 33.0 0.6 77.56 n/a
2023 01 21 11:00 Wet 316.1 0.0 0.00 36.7 2.6 68.4 n/a
2023 01 21 12:00 263.2 0.0 0.00 37.5 3.0 62.26 n/a
2023 01 21 13:00 261.2 0.0 0.00 38.5 3.6 59.71 n/a
2023 01 21 14:00 261.5 0.0 0.00 38.5 3.6 62.48 n/a
2023 01 21 15:00 Wet 389.7 0.0 0.25 37.6 3.1 71.68 n/a
2023 01 21 16:00 Wet 368.4 0.0 0.00 35.8 2.1 84.2 n/a
2023 01 21 17:00 Wet 303.3 0.0 0.00 35.5 1.9 84.7 n/a
2023 01 21 18:00 Wet 300.4 0.0 0.00 35.3 1.9 84.2 n/a
2023 01 21 19:00 Wet 290.2 0.0 0.00 34.8 1.6 84.6 n/a
2023 01 21 20:00 266.8 0.0 0.00 34.5 1.4 85.5 n/a
2023 01 21 21:00 Wet 483.8 0.0 0.25 34.4 1.3 86.5 n/a
2023 01 21 22:00 Wet 551.2 0.0 0.25 34.0 1.1 88.4 n/a
2023 01 21 23:00 Wet 570.8 0.0 0.25 33.7 0.9 89.4 n/a
2023 01 21 24:00 Wet 829.0 0.0 0.51 32.1 0.1 92.1 n/a
2023 01 22 1:00 Wet 784.5 0.0 0.00 31.3 -0.4 94.9 n/a
2023 01 22 2:00 Wet 668.7 0.0 0.00 31.2 -0.4 95.6 n/a
2023 01 22 3:00 Wet 723.7 0.0 0.00 31.3 -0.4 96.1 n/a
2023 01 22 4:00 Wet 833.0 0.0 0.00 31.3 -0.4 96.5 n/a
2023 01 22 5:00 Wet 434.6 0.0 0.00 31.3 -0.4 96.6 n/a
2023 01 22 6:00 Wet 440.2 0.0 0.00 31.4 -0.3 96.7 n/a
2023 01 22 7:00 Wet 392.9 0.0 0.00 31.6 -0.2 96.8 n/a
2023 01 22 8:00 Wet 366.9 0.0 0.25 31.6 -0.2 97.1 n/a
2023 01 22 9:00 Wet 344.5 0.0 1.02 31.7 -0.1 97.3 n/a
2023 01 22 10:00 Wet 349.1 0.0 1.02 32.2 0.1 97.2 n/a
2023 01 22 11:00 Wet 314.4 0.0 0.00 33.3 0.7 96.9 n/a
2023 01 22 12:00 278.9 0.0 0.00 34.1 1.2 93.1 n/a
2023 01 22 13:00 264.4 0.0 0.00 34.9 1.6 85 n/a
2023 01 22 14:00 263.6 0.0 0.00 35.3 1.8 81.9 n/a
2023 01 22 15:00 263.7 0.0 0.00 34.8 1.5 82.1 n/a
2023 01 22 16:00 263.7 0.0 0.00 34.0 1.1 82 n/a
2023 01 22 17:00 263.6 0.0 0.00 33.5 0.8 79.96 n/a
2023 01 22 18:00 263.8 0.0 0.00 32.8 0.5 79.47 n/a
2023 01 22 19:00 264.2 0.0 0.00 32.2 0.1 79.96 n/a
2023 01 22 20:00 264.1 0.0 0.00 32.1 0.0 81.1 n/a
2023 01 22 21:00 263.9 0.0 0.00 31.9 -0.0 79.64 n/a
2023 01 22 22:00 263.6 0.0 0.00 31.2 -0.4 75.96 n/a
2023 01 22 23:00 263.6 0.0 0.00 30.5 -0.8 76.02 n/a
2023 01 22 24:00 263.7 0.0 0.00 29.6 -1.3 77.83 n/a
2023 01 23 1:00 263.8 0.0 0.00 28.8 -1.8 79.73 n/a
2023 01 23 2:00 264.6 0.0 0.00 27.8 -2.3 80.8 n/a
2023 01 23 3:00 267.4 0.0 0.00 26.6 -3.0 82.1 n/a
2023 01 23 4:00 270.0 0.0 0.00 25.4 -3.7 85.8 n/a
2023 01 23 5:00 271.9 0.0 0.00 25.0 -3.9 88 n/a
2023 01 23 6:00 273.6 0.0 0.00 24.5 -4.2 92.1 n/a
2023 01 23 7:00 274.4 0.0 0.00 24.0 -4.5 93.9 n/a
2023 01 23 8:00 274.6 0.0 0.00 23.7 -4.6 94.1 n/a
2023 01 23 9:00 274.7 0.0 0.00 23.5 -4.7 94.3 n/a
2023 01 23 10:00 280.2 0.0 0.00 24.7 -4.1 94.5 n/a
2023 01 23 11:00 267.1 0.0 0.00 27.6 -2.4 90.1 n/a
2023 01 23 12:00 260.6 0.0 0.00 32.5 0.3 76.79 n/a
2023 01 23 13:00 260.3 0.0 0.00 36.4 2.5 69.47 n/a
2023 01 23 14:00 260.5 0.0 0.00 39.4 4.1 62.29 n/a
2023 01 23 15:00 260.8 0.0 0.00 40.9 4.9 56.48 n/a
2023 01 23 16:00 260.8 0.0 0.00 41.1 5.0 52.29 n/a
2023 01 23 17:00 261.2 0.0 0.00 40.1 4.5 56.37 n/a
2023 01 23 18:00 262.3 0.0 0.00 37.5 3.1 61.49 n/a
2023 01 23 19:00 262.9 0.0 0.00 35.7 2.1 63.84 n/a
2023 01 23 20:00 262.9 0.0 0.00 34.8 1.5 66.63 n/a
2023 01 23 21:00 263.9 0.0 0.00 33.2 0.7 70.46 n/a
2023 01 23 22:00 264.5 0.0 0.00 32.5 0.3 72.37 n/a
2023 01 23 23:00 266.0 0.0 0.00 32.0 0.0 74.39 n/a
2023 01 23 24:00 265.5 0.0 0.00 31.6 -0.2 76.23 n/a
2023 01 24 1:00 265.5 0.0 0.00 30.7 -0.7 79.34 n/a
2023 01 24 2:00 265.2 0.0 0.00 30.9 -0.6 80.8 n/a
2023 01 24 3:00 266.7 0.0 0.00 30.9 -0.6 81 n/a
2023 01 24 4:00 268.4 0.0 0.00 30.6 -0.8 82 n/a
2023 01 24 5:00 278.5 0.0 0.00 29.2 -1.5 84.7 n/a
2023 01 24 6:00 282.9 0.0 0.00 28.9 -1.7 86 n/a
2023 01 24 7:00 Wet 295.4 0.0 0.00 27.9 -2.3 87.2 n/a
2023 01 24 8:00 272.4 0.0 0.00 27.1 -2.7 88.5 n/a
2023 01 24 9:00 274.7 0.0 0.00 28.7 -1.8 88.3 n/a
2023 01 24 10:00 269.6 0.0 0.00 30.9 -0.6 86 n/a
2023 01 24 11:00 262.8 0.0 0.00 33.4 0.8 82.2 n/a
2023 01 24 12:00 262.2 0.0 0.00 36.2 2.4 74.08 n/a
2023 01 24 13:00 261.8 0.0 0.00 37.7 3.1 69.66 n/a
2023 01 24 14:00 261.6 0.0 0.00 38.4 3.5 66.29 n/a
2023 01 24 15:00 261.6 0.0 0.00 38.9 3.9 65.47 n/a
2023 01 24 16:00 261.6 0.0 0.00 38.8 3.8 65.75 n/a
2023 01 24 17:00 263.1 0.0 0.00 38.1 3.4 68.23 n/a
2023 01 24 18:00 Wet 371.0 0.0 0.00 36.4 2.5 78.29 n/a
2023 01 24 19:00 Wet 514.2 0.0 0.00 35.0 1.7 84.6 n/a
2023 01 24 20:00 Wet 614.2 0.0 0.76 34.3 1.3 87.1 n/a
2023 01 24 21:00 Wet 642.4 0.0 0.51 33.0 0.5 88.8 n/a
2023 01 24 22:00 Wet 720.5 0.0 0.25 32.3 0.2 90.6 n/a
2023 01 24 23:00 Wet 920.0 0.0 0.00 31.6 -0.2 93.3 n/a
2023 01 24 24:00 Wet 872.0 0.0 0.00 31.3 -0.4 94.5 n/a
2023 01 25 1:00 Wet 719.2 0.0 0.00 31.2 -0.5 95.2 n/a
2023 01 25 2:00 Wet 655.5 0.0 0.00 31.2 -0.5 95.5 n/a
2023 01 25 3:00 Wet 697.2 0.0 0.00 31.1 -0.5 95.8 n/a
2023 01 25 4:00 Wet 730.0 0.0 0.00 31.2 -0.5 96.4 n/a
2023 01 25 5:00 Wet 751.0 0.0 0.00 31.2 -0.4 96.7 n/a
2023 01 25 6:00 Wet 630.9 0.0 0.00 31.3 -0.4 96.7 n/a
2023 01 25 7:00 Wet 668.4 0.0 0.00 31.4 -0.3 96.5 n/a
2023 01 25 8:00 Wet 602.7 0.0 0.00 31.3 -0.4 96.4 n/a
2023 01 25 9:00 Wet 586.8 0.0 0.00 31.6 -0.2 95.1 n/a
2023 01 25 10:00 Wet 311.4 0.0 0.00 32.2 0.1 92.4 n/a
2023 01 25 11:00 264.6 0.2 3.81 32.7 0.4 89.7 n/a
2023 01 25 12:00 263.2 0.1 1.27 33.1 0.6 84.8 n/a
2023 01 25 13:00 262.7 0.0 0.00 33.9 1.1 81.5 n/a
2023 01 25 14:00 262.7 0.0 0.00 35.1 1.7 78.94 n/a
2023 01 25 15:00 262.6 0.0 0.00 34.5 1.4 72.9 n/a
2023 01 25 16:00 262.9 0.0 0.00 33.4 0.8 74.3 n/a
2023 01 25 17:00 263.0 0.0 0.00 32.4 0.2 73.88 n/a
2023 01 25 18:00 263.0 0.0 0.00 30.4 -0.9 75.27 n/a
2023 01 25 19:00 262.9 0.0 0.00 29.1 -1.6 68.35 n/a
2023 01 25 20:00 262.4 0.0 0.00 28.7 -1.8 66.51 n/a
2023 01 25 21:00 263.0 0.0 0.00 28.1 -2.2 71.26 n/a
2023 01 25 22:00 263.0 0.0 0.00 27.5 -2.5 71.54 n/a
2023 01 25 23:00 263.0 0.0 0.00 27.0 -2.8 72.32 n/a
2023 01 25 24:00 263.0 0.0 0.00 26.1 -3.3 71.18 n/a
2023 01 26 1:00 263.0 0.0 0.00 25.1 -3.8 70.36 n/a
2023 01 26 2:00 263.0 0.0 0.00 23.3 -4.8 68.86 n/a
2023 01 26 3:00 263.1 0.0 0.00 21.1 -6.1 70.39 n/a
2023 01 26 4:00 263.2 0.0 0.00 19.6 -6.9 70.79 n/a
2023 01 26 5:00 263.3 0.0 0.00 18.4 -7.6 70.08 n/a
2023 01 26 6:00 263.7 0.0 0.00 17.8 -7.9 71.73 n/a
2023 01 26 7:00 263.8 0.0 0.00 17.1 -8.3 73.21 n/a
2023 01 26 8:00 263.8 0.0 0.00 16.9 -8.4 73.57 n/a
2023 01 26 9:00 262.0 0.0 0.00 18.8 -7.3 73.03 n/a
2023 01 26 10:00 260.9 0.0 0.00 21.5 -5.8 65.41 n/a
2023 01 26 11:00 260.2 0.0 0.00 24.5 -4.2 60.09 n/a
2023 01 26 12:00 260.2 0.0 0.00 27.0 -2.8 60.36 n/a
2023 01 26 13:00 260.9 0.0 0.00 27.9 -2.3 58.69 n/a
2023 01 26 14:00 260.9 0.0 0.00 28.4 -2.0 58.28 n/a
2023 01 26 15:00 260.9 0.0 0.00 29.5 -1.4 56.09 n/a
2023 01 26 16:00 260.9 0.0 0.00 30.7 -0.7 53.32 n/a
2023 01 26 17:00 261.0 0.0 0.00 30.6 -0.8 52.74 n/a
2023 01 26 18:00 261.6 0.0 0.00 30.1 -1.1 54.26 n/a
2023 01 26 19:00 261.6 0.0 0.00 29.7 -1.3 58.86 n/a
2023 01 26 20:00 262.2 0.0 0.00 29.2 -1.6 64.67 n/a
2023 01 26 21:00 263.1 0.0 0.00 28.2 -2.1 68.76 n/a
2023 01 26 22:00 263.1 0.0 0.00 27.7 -2.4 71.63 n/a
2023 01 26 23:00 263.9 0.0 0.00 28.3 -2.1 76.57 n/a
2023 01 26 24:00 264.3 0.0 0.00 28.3 -2.0 78.58 n/a
2023 01 27 1:00 264.6 0.0 0.00 27.9 -2.3 79.46 n/a
2023 01 27 2:00 265.0 0.0 0.00 28.1 -2.2 79.86 n/a
2023 01 27 3:00 265.1 0.0 0.00 28.8 -1.8 80.4 n/a
2023 01 27 4:00 263.6 0.0 0.00 31.0 -0.5 76.43 n/a
2023 01 27 5:00 262.3 0.0 0.00 34.8 1.6 64.79 n/a
2023 01 27 6:00 262.0 0.0 0.00 35.7 2.1 61.83 n/a
2023 01 27 7:00 261.6 0.0 0.00 36.9 2.7 58.2 n/a
2023 01 27 8:00 261.6 0.0 0.00 36.4 2.4 60.54 n/a
2023 01 27 9:00 260.7 0.0 0.00 36.8 2.6 60.86 n/a
2023 01 27 10:00 260.1 0.0 0.00 38.4 3.6 58.22 n/a
2023 01 27 11:00 260.6 0.0 0.00 39.7 4.3 57.53 n/a
2023 01 27 12:00 259.5 0.0 0.00 43.2 6.2 53.25 n/a
2023 01 27 13:00 259.1 0.0 0.00 45.5 7.5 51.25 n/a
2023 01 27 14:00 259.4 0.0 0.00 47.2 8.4 50.13 n/a
2023 01 27 15:00 259.4 0.0 0.00 48.6 9.2 48.69 n/a
2023 01 27 16:00 259.7 0.0 0.00 49.3 9.6 47.19 n/a
2023 01 27 17:00 259.8 0.0 0.00 49.1 9.5 46.2 n/a
2023 01 27 18:00 260.4 0.0 0.00 46.5 8.1 48.38 n/a
2023 01 27 19:00 261.4 0.0 0.00 43.2 6.2 54.91 n/a
2023 01 27 20:00 262.1 0.0 0.00 40.8 4.9 60.12 n/a
2023 01 27 21:00 262.5 0.0 0.00 39.2 4.0 65.37 n/a
2023 01 27 22:00 262.8 0.0 0.00 38.1 3.4 68.82 n/a
2023 01 27 23:00 262.6 0.0 0.00 38.2 3.4 69.13 n/a
2023 01 27 24:00 262.3 0.0 0.00 38.5 3.6 69.23 n/a
2023 01 28 1:00 262.1 0.0 0.00 38.8 3.8 66.35 n/a
2023 01 28 2:00 261.5 0.0 0.00 39.2 4.0 60.96 n/a
2023 01 28 3:00 261.5 0.0 0.00 39.9 4.4 57.57 n/a
2023 01 28 4:00 261.4 0.0 0.00 40.7 4.8 56.19 n/a
2023 01 28 5:00 261.4 0.0 0.00 40.2 4.5 56.41 n/a
2023 01 28 6:00 261.3 0.0 0.00 39.6 4.2 57.81 n/a
2023 01 28 7:00 260.9 0.0 0.00 40.6 4.8 55.14 n/a
2023 01 28 8:00 260.9 0.0 0.00 40.9 4.9 55.16 n/a
2023 01 28 9:00 260.3 0.0 0.00 41.9 5.5 56.19 n/a
2023 01 28 10:00 259.6 0.0 0.00 45.1 7.3 58.52 n/a
2023 01 28 11:00 259.8 0.0 0.00 48.0 8.9 61.11 n/a
2023 01 28 12:00 260.1 0.0 0.00 49.6 9.8 59.68 n/a
2023 01 28 13:00 259.5 0.0 0.00 51.3 10.7 56 n/a
2023 01 28 14:00 259.3 0.0 0.00 53.5 11.9 52.55 n/a
2023 01 28 15:00 259.3 0.0 0.00 55.1 12.9 50.26 n/a
2023 01 28 16:00 259.3 0.0 0.00 55.4 13.0 49.84 n/a
2023 01 28 17:00 259.6 0.0 0.00 54.8 12.7 50.64 n/a
2023 01 28 18:00 260.5 0.0 0.00 52.7 11.5 55.28 n/a
2023 01 28 19:00 260.8 0.0 0.00 51.5 10.8 58.18 n/a
2023 01 28 20:00 260.8 0.0 0.00 50.6 10.3 61.7 n/a
2023 01 28 21:00 261.6 0.0 0.00 41.6 5.3 67.84 n/a
2023 01 28 22:00 Wet 412.1 0.0 0.00 34.1 1.2 78.05 n/a
2023 01 28 23:00 Wet 339.0 0.0 0.25 30.3 -0.9 82 n/a
2023 01 28 24:00 265.8 0.0 0.00 28.0 -2.2 79.33 n/a
2023 01 29 1:00 265.4 0.0 0.00 25.7 -3.5 78.05 n/a
2023 01 29 2:00 264.6 0.0 0.00 24.4 -4.2 78.45 n/a
2023 01 29 3:00 263.7 0.0 0.00 23.1 -5.0 79.13 n/a
2023 01 29 4:00 263.7 0.0 0.00 20.9 -6.1 81 n/a
2023 01 29 5:00 263.7 0.0 0.00 19.6 -6.9 80 n/a
2023 01 29 6:00 263.2 0.0 0.00 19.1 -7.2 77.62 n/a
2023 01 29 7:00 263.1 0.0 0.00 18.5 -7.5 76.26 n/a
2023 01 29 8:00 263.1 0.0 0.00 17.7 -8.0 73.95 n/a
2023 01 29 9:00 263.1 0.0 0.00 16.8 -8.4 73.69 n/a
2023 01 29 10:00 262.8 0.0 0.00 16.3 -8.7 73.06 n/a
2023 01 29 11:00 262.9 0.0 0.00 16.0 -8.9 75.17 n/a
2023 01 29 12:00 262.9 0.0 0.00 16.0 -8.9 76.53 n/a
2023 01 29 13:00 262.6 0.0 0.00 16.6 -8.6 73.61 n/a
2023 01 29 14:00 262.5 0.0 0.00 17.2 -8.2 71.42 n/a
2023 01 29 15:00 262.4 0.0 0.00 18.2 -7.6 70.09 n/a
2023 01 29 16:00 262.4 0.0 0.00 18.9 -7.3 69.26 n/a
2023 01 29 17:00 262.4 0.0 0.00 19.2 -7.1 70.93 n/a
2023 01 29 18:00 262.6 0.0 0.00 19.7 -6.8 71.5 n/a
2023 01 29 19:00 266.7 0.0 0.00 19.7 -6.8 74.05 n/a
2023 01 29 20:00 273.6 0.0 0.00 19.3 -7.1 78.78 n/a
2023 01 29 21:00 271.3 0.0 0.00 19.2 -7.1 76.72 n/a
2023 01 29 22:00 270.0 0.0 0.00 18.5 -7.5 78.3 n/a
2023 01 29 23:00 269.6 0.0 0.00 17.5 -8.0 77.35 n/a
2023 01 29 24:00 265.5 0.0 0.00 16.6 -8.6 74.77 n/a
2023 01 30 1:00 263.0 0.0 0.00 15.8 -9.0 70.52 n/a
2023 01 30 2:00 262.4 0.0 0.00 15.2 -9.4 62.26 n/a
2023 01 30 3:00 262.1 0.0 0.00 14.4 -9.8 58.51 n/a
2023 01 30 4:00 261.8 0.0 0.00 14.4 -9.8 50.97 n/a
2023 01 30 5:00 261.8 0.0 0.00 13.9 -10.1 49.37 n/a
2023 01 30 6:00 261.7 0.0 0.00 13.6 -10.2 48.57 n/a
2023 01 30 7:00 261.2 0.0 0.00 13.3 -10.4 45.55 n/a
2023 01 30 8:00 261.2 0.0 0.00 13.4 -10.3 46.43 n/a
2023 01 30 9:00 261.2 0.0 0.00 13.8 -10.1 48.72 n/a
2023 01 30 10:00 261.1 0.0 0.00 14.6 -9.7 49.85 n/a
2023 01 30 11:00 261.0 0.0 0.00 15.7 -9.0 49.46 n/a
2023 01 30 12:00 260.6 0.0 0.00 16.7 -8.5 48.42 n/a
2023 01 30 13:00 260.4 0.0 0.00 17.4 -8.1 47.15 n/a
2023 01 30 14:00 260.4 0.0 0.00 18.1 -7.7 46.51 n/a
2023 01 30 15:00 260.4 0.0 0.00 18.6 -7.5 45.22 n/a
2023 01 30 16:00 260.4 0.0 0.00 18.8 -7.3 44.49 n/a
2023 01 30 17:00 260.9 0.0 0.00 18.8 -7.3 45.42 n/a
2023 01 30 18:00 261.0 0.0 0.00 18.3 -7.6 46.28 n/a
2023 01 30 19:00 261.1 0.0 0.00 18.0 -7.8 47.2 n/a
2023 01 30 20:00 261.1 0.0 0.00 17.8 -7.9 48.03 n/a
2023 01 30 21:00 261.1 0.0 0.00 17.6 -8.0 48.69 n/a
2023 01 30 22:00 261.1 0.0 0.00 17.3 -8.2 48.69 n/a
2023 01 30 23:00 261.1 0.0 0.00 16.9 -8.4 47.82 n/a
2023 01 30 24:00 261.1 0.0 0.00 16.0 -8.9 47.6 n/a
2023 01 31 1:00 261.1 0.0 0.00 15.0 -9.5 47.17 n/a
2023 01 31 2:00 261.1 0.0 0.00 14.1 -9.9 46.92 n/a
2023 01 31 3:00 261.2 0.0 0.00 13.0 -10.6 48.07 n/a
2023 01 31 4:00 261.4 0.0 0.00 11.1 -11.6 53.23 n/a
2023 01 31 5:00 261.9 0.0 0.00 10.1 -12.2 57.58 n/a
2023 01 31 6:00 261.9 0.0 0.00 9.3 -12.6 60.86 n/a
2023 01 31 7:00 261.9 0.0 0.00 8.9 -12.8 62.03 n/a
2023 01 31 8:00 261.9 0.0 0.00 9.0 -12.8 61.48 n/a
2023 01 31 9:00 261.2 0.0 0.00 10.5 -12.0 57.61 n/a
2023 01 31 10:00 260.5 0.0 0.00 13.1 -10.5 51.97 n/a
2023 01 31 11:00 259.5 0.0 0.00 15.6 -9.1 43.35 n/a
2023 01 31 12:00 259.6 0.0 0.00 17.3 -8.2 37.05 n/a
2023 01 31 13:00 259.5 0.0 0.00 18.1 -7.7 37.46 n/a
2023 01 31 14:00 259.5 0.0 0.00 19.5 -7.0 36.93 n/a
2023 01 31 15:00 259.5 0.0 0.00 20.2 -6.5 35.8 n/a
2023 01 31 16:00 259.4 0.0 0.00 21.5 -5.8 34.04 n/a
2023 01 31 17:00 259.7 0.0 0.00 22.1 -5.5 33.87 n/a
2023 01 31 18:00 260.6 0.0 0.00 21.0 -6.1 37.25 n/a
2023 01 31 19:00 261.1 0.0 0.00 19.7 -6.8 39.75 n/a
2023 01 31 20:00 261.1 0.0 0.00 18.7 -7.4 44.88 n/a
2023 01 31 21:00 261.5 0.0 0.00 17.6 -8.0 50.42 n/a
2023 01 31 22:00 261.8 0.0 0.00 17.1 -8.3 52.35 n/a
2023 01 31 23:00 261.9 0.0 0.00 16.3 -8.7 54.9 n/a
2023 01 31 24:00 262.4 0.0 0.00 15.2 -9.3 57.29 n/a
2023 02 01 1:00 262.5 0.0 0.00 15.0 -9.5 59.37 n/a
2023 02 01 2:00 263.0 0.0 0.00 14.2 -9.9 62.09 n/a
2023 02 01 3:00 263.2 0.0 0.00 13.3 -10.4 66.04 n/a
2023 02 01 4:00 263.3 0.0 0.00 13.2 -10.4 64.95 n/a
2023 02 01 5:00 263.2 0.0 0.00 13.1 -10.5 65.41 n/a
2023 02 01 6:00 263.7 0.0 0.00 12.6 -10.8 66.84 n/a
2023 02 01 7:00 263.8 0.0 0.00 12.3 -10.9 67.28 n/a
2023 02 01 8:00 263.9 0.0 0.00 12.3 -10.9 67.97 n/a
2023 02 01 9:00 261.2 0.0 0.00 15.4 -9.2 64.39 n/a
2023 02 01 10:00 258.6 0.0 0.00 21.5 -5.9 55.35 n/a
2023 02 01 11:00 258.2 0.0 0.00 25.4 -3.7 44.85 n/a
2023 02 01 12:00 258.5 0.0 0.00 28.0 -2.2 39.03 n/a
2023 02 01 13:00 258.7 0.0 0.00 28.7 -1.8 36.92 n/a
2023 02 01 14:00 258.6 0.0 0.00 30.1 -1.1 35.35 n/a
2023 02 01 15:00 258.5 0.0 0.00 32.1 0.1 32.73 n/a
2023 02 01 16:00 258.8 0.0 0.00 32.8 0.4 31.55 n/a
2023 02 01 17:00 259.2 0.0 0.00 32.2 0.1 33.87 n/a
2023 02 01 18:00 260.0 0.0 0.00 29.9 -1.2 39.72 n/a
2023 02 01 19:00 260.3 0.0 0.00 28.6 -1.9 42.92 n/a
2023 02 01 20:00 260.6 0.0 0.00 27.6 -2.4 46.9 n/a
2023 02 01 21:00 261.0 0.0 0.00 26.0 -3.3 50.86 n/a
2023 02 01 22:00 261.5 0.0 0.00 24.7 -4.1 53.47 n/a
2023 02 01 23:00 261.4 0.0 0.00 24.1 -4.4 55.19 n/a
2023 02 01 24:00 261.7 0.0 0.00 24.0 -4.5 55.2 n/a
2023 02 02 1:00 261.8 0.0 0.00 22.8 -5.1 58.87 n/a
2023 02 02 2:00 262.1 0.0 0.00 22.6 -5.2 58.89 n/a
2023 02 02 3:00 262.6 0.0 0.00 21.3 -5.9 62.12 n/a
2023 02 02 4:00 263.2 0.0 0.00 20.1 -6.6 65.94 n/a
2023 02 02 5:00 263.2 0.0 0.00 19.2 -7.1 67.72 n/a
2023 02 02 6:00 262.9 0.0 0.00 19.3 -7.1 67.48 n/a
2023 02 02 7:00 263.0 0.0 0.00 18.9 -7.3 67.63 n/a
2023 02 02 8:00 263.1 0.0 0.00 18.6 -7.4 68.3 n/a
2023 02 02 9:00 260.6 0.0 0.00 20.9 -6.2 68.77 n/a
2023 02 02 10:00 258.9 0.0 0.00 27.1 -2.7 58.07 n/a
2023 02 02 11:00 257.9 0.0 0.00 32.2 0.1 48.02 n/a
2023 02 02 12:00 256.9 0.0 0.00 37.3 3.0 38.08 n/a
2023 02 02 13:00 256.8 0.0 0.00 41.6 5.3 30.4 n/a
2023 02 02 14:00 256.7 0.0 0.00 44.7 7.1 26.18 n/a
2023 02 02 15:00 256.7 0.0 0.00 47.5 8.6 22.35 n/a
2023 02 02 16:00 257.0 0.0 0.00 49.1 9.5 22.89 n/a
2023 02 02 17:00 257.4 0.0 0.00 49.0 9.4 26.04 n/a
2023 02 02 18:00 258.4 0.0 0.00 44.5 7.0 32.97 n/a
2023 02 02 19:00 259.5 0.0 0.00 39.3 4.0 44.47 n/a
2023 02 02 20:00 260.0 0.0 0.00 35.0 1.7 51.54 n/a
2023 02 02 21:00 260.1 0.0 0.00 30.3 -1.0 47.75 n/a
2023 02 02 22:00 259.8 0.0 0.00 26.7 -2.9 40.25 n/a
2023 02 02 23:00 259.6 0.0 0.00 23.4 -4.8 33.74 n/a
2023 02 02 24:00 259.8 0.0 0.00 20.5 -6.4 38.47 n/a
2023 02 03 1:00 260.4 0.0 0.00 18.5 -7.5 44.73 n/a
2023 02 03 2:00 260.4 0.0 0.00 16.4 -8.7 44.76 n/a
2023 02 03 3:00 260.5 0.0 0.00 15.0 -9.4 48.98 n/a
2023 02 03 4:00 260.5 0.0 0.00 13.8 -10.1 47.1 n/a
2023 02 03 5:00 260.5 0.0 0.00 12.7 -10.7 46.21 n/a
2023 02 03 6:00 260.5 0.0 0.00 11.8 -11.2 47.96 n/a
2023 02 03 7:00 260.6 0.0 0.00 10.8 -11.8 48.34 n/a
2023 02 03 8:00 261.0 0.0 0.00 10.3 -12.0 51.43 n/a
2023 02 03 9:00 258.8 0.0 0.00 12.3 -10.9 44.41 n/a
2023 02 03 10:00 257.7 0.0 0.00 15.5 -9.2 37.01 n/a
2023 02 03 11:00 257.0 0.0 0.00 19.1 -7.2 31.39 n/a
2023 02 03 12:00 256.7 0.0 0.00 23.3 -4.8 25.56 n/a
2023 02 03 13:00 256.3 0.0 0.00 27.2 -2.7 20.15 n/a
2023 02 03 14:00 256.7 0.0 0.00 29.9 -1.2 19.42 n/a
2023 02 03 15:00 256.9 0.0 0.00 31.8 -0.1 19.51 n/a
2023 02 03 16:00 257.4 0.0 0.00 34.1 1.2 18.78 n/a
2023 02 03 17:00 257.5 0.0 0.00 34.9 1.6 20.53 n/a
2023 02 03 18:00 258.2 0.0 0.00 34.2 1.2 25.08 n/a
2023 02 03 19:00 258.9 0.0 0.00 32.0 -0.0 31.08 n/a
2023 02 03 20:00 259.4 0.0 0.00 30.5 -0.8 34.72 n/a
2023 02 03 21:00 259.8 0.0 0.00 29.1 -1.6 38.97 n/a
2023 02 03 22:00 260.1 0.0 0.00 27.9 -2.3 44.08 n/a
2023 02 03 23:00 259.6 0.0 0.00 29.8 -1.2 44.1 n/a
2023 02 03 24:00 260.1 0.0 0.00 29.2 -1.6 49.65 n/a
2023 02 04 1:00 260.5 0.0 0.00 29.0 -1.6 57.54 n/a
2023 02 04 2:00 261.4 0.0 0.00 28.7 -1.9 67.61 n/a
2023 02 04 3:00 262.0 0.0 0.00 30.3 -0.9 72.44 n/a
2023 02 04 4:00 261.7 0.0 0.00 34.2 1.2 68.84 n/a
2023 02 04 5:00 261.2 0.0 0.00 36.1 2.3 64.57 n/a
2023 02 04 6:00 260.9 0.0 0.00 37.2 2.9 61.7 n/a
2023 02 04 7:00 260.9 0.0 0.00 37.2 2.9 62.36 n/a
2023 02 04 8:00 260.9 0.0 0.00 36.7 2.6 62.76 n/a
2023 02 04 9:00 260.6 0.0 0.00 37.8 3.2 59.75 n/a
2023 02 04 10:00 259.8 0.0 0.00 40.7 4.8 51.57 n/a
2023 02 04 11:00 259.1 0.0 0.00 44.0 6.7 47.03 n/a
2023 02 04 12:00 258.7 0.0 0.00 46.8 8.2 46.41 n/a
2023 02 04 13:00 258.7 0.0 0.00 47.6 8.7 49.68 n/a
2023 02 04 14:00 258.8 0.0 0.00 48.3 9.1 49.29 n/a
2023 02 04 15:00 258.7 0.0 0.00 50.0 10.0 45.95 n/a
2023 02 04 16:00 258.9 0.0 0.00 49.5 9.7 48.13 n/a
2023 02 04 17:00 259.1 0.0 0.00 50.8 10.4 46.81 n/a
2023 02 04 18:00 259.4 0.0 0.00 49.3 9.6 48.81 n/a
2023 02 04 19:00 260.0 0.0 0.00 47.0 8.3 52.84 n/a
2023 02 04 20:00 260.1 0.0 0.00 45.3 7.4 56.95 n/a
2023 02 04 21:00 260.7 0.0 0.00 44.3 6.8 60.27 n/a
CST mV in mm F C % mph
Year Month Day Hour Leaf Wetness Total
Precipitation
Avg. Temp Avg. Rel.
Humidity
Wind
Speed

Back to the top of the page